createdAt,value
2023-03-06T00:01:02.810Z,4.98
2023-03-06T00:02:34.683Z,4.94
2023-03-06T00:04:08.547Z,4.89
2023-03-06T00:05:42.986Z,4.84
2023-03-06T00:07:14.802Z,4.81
2023-03-06T00:08:46.661Z,4.78
2023-03-06T00:10:19.912Z,4.70
2023-03-06T00:11:51.792Z,4.57
2023-03-06T00:13:23.894Z,4.47
2023-03-06T00:14:55.784Z,4.38
2023-03-06T00:16:27.730Z,4.29
2023-03-06T00:17:59.682Z,4.19
2023-03-06T00:19:31.559Z,4.13
2023-03-06T00:21:07.704Z,4.01
2023-03-06T00:22:39.900Z,3.88
2023-03-06T00:24:11.774Z,3.74
2023-03-06T00:25:44.473Z,3.58
2023-03-06T00:27:16.396Z,3.47
2023-03-06T00:28:48.341Z,3.37
2023-03-06T00:30:23.827Z,3.30
2023-03-06T00:31:55.782Z,3.24
2023-03-06T00:33:27.648Z,3.16
2023-03-06T00:34:59.414Z,3.13
2023-03-06T00:36:31.301Z,3.16
2023-03-06T00:38:03.219Z,3.15
2023-03-06T00:39:35.188Z,3.09
2023-03-06T00:41:10.809Z,3.01
2023-03-06T00:42:42.714Z,2.94
2023-03-06T00:44:14.517Z,2.89
2023-03-06T00:45:46.423Z,2.80
2023-03-06T00:47:18.455Z,2.77
2023-03-06T00:48:50.345Z,2.76
2023-03-06T00:50:22.135Z,2.88
2023-03-06T00:51:53.912Z,3.00
2023-03-06T00:53:25.790Z,3.17
2023-03-06T00:54:57.742Z,3.32
2023-03-06T00:56:30.432Z,3.48
2023-03-06T00:58:02.352Z,3.62
2023-03-06T00:59:34.310Z,3.76
2023-03-06T01:01:06.422Z,3.84
2023-03-06T01:02:38.335Z,3.93
2023-03-06T01:04:10.148Z,3.98
2023-03-06T01:05:42.013Z,4.03
2023-03-06T01:07:13.857Z,4.10
2023-03-06T01:08:45.716Z,4.14
2023-03-06T01:10:17.531Z,4.16
2023-03-06T01:11:49.461Z,4.19
2023-03-06T01:13:21.443Z,4.23
2023-03-06T01:14:53.349Z,4.25
2023-03-06T01:16:25.274Z,4.29
2023-03-06T01:17:57.192Z,4.29
2023-03-06T01:19:28.993Z,4.28
2023-03-06T01:21:00.796Z,4.29
2023-03-06T01:22:32.627Z,4.31
2023-03-06T01:24:04.624Z,4.33
2023-03-06T01:25:36.470Z,4.33
2023-03-06T01:27:08.376Z,4.35
2023-03-06T01:28:40.904Z,4.35
2023-03-06T01:30:15.226Z,4.34
2023-03-06T01:31:47.176Z,4.34
2023-03-06T01:33:19.025Z,4.36
2023-03-06T01:34:50.843Z,4.37
2023-03-06T01:36:22.837Z,4.37
2023-03-06T01:37:54.712Z,4.36
2023-03-06T01:39:26.585Z,4.36
2023-03-06T01:40:58.490Z,4.35
2023-03-06T01:42:32.083Z,4.36
2023-03-06T01:44:04.063Z,4.35
2023-03-06T01:45:35.833Z,4.34
2023-03-06T01:47:07.612Z,4.30
2023-03-06T01:48:39.430Z,4.28
2023-03-06T01:50:11.452Z,4.25
2023-03-06T01:51:46.049Z,4.21
2023-03-06T01:53:17.907Z,4.16
2023-03-06T01:55:12.578Z,4.13
2023-03-06T01:56:45.117Z,4.11
2023-03-06T01:58:17.264Z,4.06
2023-03-06T01:59:53.289Z,4.04
2023-03-06T02:01:25.163Z,3.94
2023-03-06T02:02:56.962Z,3.72
2023-03-06T02:04:29.161Z,3.51
2023-03-06T02:06:00.979Z,3.28
2023-03-06T02:07:33.233Z,3.09
2023-03-06T02:09:05.328Z,2.93
2023-03-06T02:10:37.143Z,2.77
2023-03-06T02:12:10.377Z,2.64
2023-03-06T02:13:42.726Z,2.53
2023-03-06T02:15:15.380Z,2.49
2023-03-06T02:16:47.280Z,2.41
2023-03-06T02:18:19.232Z,2.34
2023-03-06T02:19:53.812Z,2.26
2023-03-06T02:21:26.595Z,2.13
2023-03-06T02:23:09.147Z,2.04
2023-03-06T02:24:43.219Z,1.92
2023-03-06T02:26:15.404Z,1.83
2023-03-06T02:27:47.509Z,1.78
2023-03-06T02:29:23.136Z,1.76
2023-03-06T02:30:55.375Z,1.80
2023-03-06T02:32:27.355Z,1.78
2023-03-06T02:34:28.564Z,1.71
2023-03-06T02:36:01.296Z,1.60
2023-03-06T02:37:33.149Z,1.49
2023-03-06T02:39:05.302Z,1.41
2023-03-06T02:40:37.304Z,1.39
2023-03-06T02:43:52.104Z,1.30
2023-03-06T02:45:26.288Z,1.20
2023-03-06T02:46:58.149Z,1.12
2023-03-06T02:48:30.015Z,1.07
2023-03-06T02:50:01.942Z,1.05
2023-03-06T02:51:33.808Z,1.04
2023-03-06T02:53:06.026Z,1.07
2023-03-06T02:54:37.930Z,1.07
2023-03-06T02:56:09.782Z,1.04
2023-03-06T02:57:41.668Z,0.95
2023-03-06T02:59:13.494Z,0.88
2023-03-06T03:00:45.808Z,0.82
2023-03-06T03:02:17.738Z,0.83
2023-03-06T03:03:49.572Z,0.85
2023-03-06T03:05:21.487Z,0.88
2023-03-06T03:06:53.317Z,0.94
2023-03-06T03:08:25.163Z,1.01
2023-03-06T03:09:56.943Z,0.99
2023-03-06T03:11:28.756Z,0.87
2023-03-06T03:13:00.684Z,0.78
2023-03-06T03:14:32.764Z,0.77
2023-03-06T03:16:05.731Z,0.76
2023-03-06T03:17:41.147Z,0.78
2023-03-06T03:19:13.086Z,0.80
2023-03-06T03:20:44.982Z,0.82
2023-03-06T03:22:16.993Z,0.81
2023-03-06T03:23:48.862Z,0.81
2023-03-06T03:25:21.035Z,0.78
2023-03-06T03:26:53.078Z,0.76
2023-03-06T03:28:25.028Z,0.74
2023-03-06T03:29:57.749Z,0.73
2023-03-06T03:31:29.609Z,0.69
2023-03-06T03:33:03.779Z,0.64
2023-03-06T03:34:35.765Z,0.55
2023-03-06T03:36:07.709Z,0.49
2023-03-06T03:37:39.627Z,0.43
2023-03-06T03:39:11.606Z,0.44
2023-03-06T03:40:43.395Z,0.45
2023-03-06T03:42:15.842Z,0.47
2023-03-06T03:43:47.702Z,0.50
2023-03-06T03:45:19.826Z,0.47
2023-03-06T03:48:24.453Z,0.31
2023-03-06T03:49:56.448Z,0.25
2023-03-06T03:51:28.292Z,0.20
2023-03-06T03:53:00.203Z,0.21
2023-03-06T03:54:32.119Z,0.20
2023-03-06T03:56:04.251Z,0.28
2023-03-06T03:57:36.038Z,0.30
2023-03-06T03:59:08.215Z,0.31
2023-03-06T04:00:40.033Z,0.30
2023-03-06T04:02:12.026Z,0.28
2023-03-06T04:03:43.921Z,0.29
2023-03-06T04:05:16.061Z,0.27
2023-03-06T04:06:47.837Z,0.28
2023-03-06T04:08:19.846Z,0.28
2023-03-06T04:09:51.682Z,0.24
2023-03-06T04:11:23.574Z,0.28
2023-03-06T04:12:55.395Z,0.31
2023-03-06T04:14:27.325Z,0.27
2023-03-06T04:16:04.181Z,0.20
2023-03-06T04:17:36.024Z,0.13
2023-03-06T04:19:07.930Z,0.09
2023-03-06T04:20:39.767Z,0.03
2023-03-06T04:22:11.648Z,0.02
2023-03-06T04:23:43.535Z,0.01
2023-03-06T04:25:15.483Z,-0.04
2023-03-06T04:26:47.353Z,-0.06
2023-03-06T04:28:19.922Z,-0.10
2023-03-06T04:29:51.821Z,-0.13
2023-03-06T04:31:23.739Z,-0.13
2023-03-06T04:32:55.635Z,-0.13
2023-03-06T04:34:27.475Z,-0.17
2023-03-06T04:35:59.290Z,-0.21
2023-03-06T04:37:31.424Z,-0.24
2023-03-06T04:39:04.026Z,-0.25
2023-03-06T04:40:36.383Z,-0.26
2023-03-06T04:42:08.525Z,-0.27
2023-03-06T04:43:40.347Z,-0.26
2023-03-06T04:45:12.416Z,-0.23
2023-03-06T04:46:44.190Z,-0.22
2023-03-06T04:48:17.256Z,-0.22
2023-03-06T04:49:49.074Z,-0.25
2023-03-06T04:51:20.941Z,-0.31
2023-03-06T04:52:52.858Z,-0.28
2023-03-06T04:54:24.710Z,-0.19
2023-03-06T04:57:30.314Z,-0.15
2023-03-06T04:59:02.706Z,-0.15
2023-03-06T05:00:34.568Z,-0.16
2023-03-06T05:02:06.425Z,-0.17
2023-03-06T05:03:38.545Z,-0.19
2023-03-06T05:05:10.973Z,-0.22
2023-03-06T05:06:42.928Z,-0.25
2023-03-06T05:08:15.596Z,-0.24
2023-03-06T05:09:47.395Z,-0.26
2023-03-06T05:11:19.328Z,-0.23
2023-03-06T05:12:53.918Z,-0.16
2023-03-06T05:14:25.761Z,-0.11
2023-03-06T05:16:01.818Z,-0.08
2023-03-06T05:17:33.674Z,-0.08
2023-03-06T05:19:05.489Z,-0.07
2023-03-06T05:20:37.378Z,-0.08
2023-03-06T05:22:09.497Z,-0.10
2023-03-06T05:23:44.139Z,-0.07
2023-03-06T05:26:49.144Z,-0.03
2023-03-06T05:28:21.304Z,0.01
2023-03-06T05:29:53.623Z,0.04
2023-03-06T05:31:25.864Z,0.04
2023-03-06T05:32:57.870Z,0.07
2023-03-06T05:34:29.667Z,0.08
2023-03-06T05:36:01.596Z,0.11
2023-03-06T05:37:33.614Z,0.16
2023-03-06T05:39:06.289Z,0.22
2023-03-06T05:40:40.110Z,0.28
2023-03-06T05:42:11.953Z,0.35
2023-03-06T05:43:43.881Z,0.39
2023-03-06T05:45:15.889Z,0.43
2023-03-06T05:46:49.163Z,0.47
2023-03-06T05:48:21.094Z,0.54
2023-03-06T05:49:53.006Z,0.60
2023-03-06T05:51:25.508Z,0.70
2023-03-06T05:52:57.411Z,0.82
2023-03-06T05:54:29.260Z,0.91
2023-03-06T05:56:02.420Z,1.00
2023-03-06T05:57:34.528Z,1.12
2023-03-06T05:59:06.433Z,1.21
2023-03-06T06:00:38.309Z,1.31
2023-03-06T06:02:10.179Z,1.41
2023-03-06T06:03:42.317Z,1.51
2023-03-06T06:05:14.368Z,1.61
2023-03-06T06:06:46.270Z,1.71
2023-03-06T06:08:18.270Z,1.78
2023-03-06T06:09:52.930Z,1.88
2023-03-06T06:12:58.677Z,2.06
2023-03-06T06:14:30.899Z,2.15
2023-03-06T06:16:09.613Z,2.26
2023-03-06T06:17:41.663Z,2.39
2023-03-06T06:19:18.854Z,2.51
2023-03-06T06:20:50.746Z,2.63
2023-03-06T06:22:22.657Z,2.72
2023-03-06T06:23:54.469Z,2.82
2023-03-06T06:25:26.391Z,2.93
2023-03-06T06:26:58.587Z,3.02
2023-03-06T06:28:30.815Z,3.13
2023-03-06T06:30:02.800Z,3.24
2023-03-06T06:31:36.954Z,3.34
2023-03-06T06:33:08.783Z,3.41
2023-03-06T06:34:40.662Z,3.50
2023-03-06T06:36:16.530Z,3.61
2023-03-06T06:37:48.620Z,3.71
2023-03-06T06:39:20.863Z,3.80
2023-03-06T06:41:26.866Z,3.89
2023-03-06T06:42:46.901Z,4.02
2023-03-06T06:44:19.225Z,4.10
2023-03-06T06:45:51.125Z,4.20
2023-03-06T06:47:25.099Z,4.30
2023-03-06T06:48:57.755Z,4.39
2023-03-06T06:50:29.694Z,4.49
2023-03-06T06:52:01.586Z,4.57
2023-03-06T06:53:33.490Z,4.71
2023-03-06T06:55:05.590Z,4.80
2023-03-06T06:56:37.474Z,4.90
2023-03-06T06:58:09.376Z,4.98
2023-03-06T06:59:41.424Z,5.06
2023-03-06T07:01:13.965Z,5.14
2023-03-06T07:02:49.421Z,5.30
2023-03-06T07:04:21.511Z,5.42
2023-03-06T07:05:56.533Z,5.54
2023-03-06T07:07:28.570Z,5.65
2023-03-06T07:09:00.448Z,5.74
2023-03-06T07:10:32.415Z,5.86
2023-03-06T07:12:04.425Z,5.98
2023-03-06T07:13:36.397Z,6.02
2023-03-06T07:15:08.551Z,6.16
2023-03-06T07:16:40.421Z,6.19
2023-03-06T07:18:15.320Z,6.30
2023-03-06T07:19:47.283Z,6.37
2023-03-06T07:21:19.078Z,6.49
2023-03-06T07:22:51.936Z,6.50
2023-03-06T07:24:23.935Z,6.55
2023-03-06T07:25:55.911Z,6.67
2023-03-06T07:27:27.820Z,6.68
2023-03-06T07:28:59.866Z,6.72
2023-03-06T07:30:31.851Z,6.79
2023-03-06T07:32:03.914Z,6.84
2023-03-06T07:33:36.045Z,6.93
2023-03-06T07:35:19.796Z,7.01
2023-03-06T07:36:52.445Z,6.98
2023-03-06T07:38:26.770Z,7.01
2023-03-06T07:39:58.750Z,7.06
2023-03-06T07:41:30.633Z,7.06
2023-03-06T07:43:18.313Z,7.05
2023-03-06T07:44:59.012Z,7.15
2023-03-06T07:46:31.136Z,7.18
2023-03-06T07:48:05.473Z,7.22
2023-03-06T07:49:37.481Z,7.24
2023-03-06T07:51:12.147Z,7.25
2023-03-06T07:52:44.117Z,7.26
2023-03-06T08:52:01.648Z,8.53
2023-03-06T08:53:43.174Z,8.59
2023-03-06T08:55:15.888Z,8.64
2023-03-06T08:56:48.188Z,8.71
2023-03-06T08:58:20.434Z,8.74
2023-03-06T08:59:52.440Z,8.75
2023-03-06T09:01:30.171Z,8.75
2023-03-06T09:03:02.236Z,8.67
2023-03-06T09:04:35.530Z,8.81
2023-03-06T09:06:07.542Z,8.79
2023-03-06T09:07:39.600Z,8.86
2023-03-06T09:09:13.056Z,8.83
2023-03-06T09:10:48.196Z,8.94
2023-03-06T09:12:22.678Z,8.88
2023-03-06T09:13:55.310Z,8.90
2023-03-06T09:15:27.619Z,8.87
2023-03-06T09:16:59.784Z,8.85
2023-03-06T09:18:31.950Z,8.91
2023-03-06T09:20:05.727Z,9.02
2023-03-06T09:21:38.115Z,9.08
2023-03-06T09:23:10.541Z,9.16
2023-03-06T09:24:42.566Z,9.17
2023-03-06T09:26:14.989Z,9.16
2023-03-06T09:27:58.265Z,9.23
2023-03-06T09:29:37.307Z,9.28
2023-03-06T09:31:20.453Z,9.36
2023-03-06T09:32:52.766Z,9.34
2023-03-06T09:34:24.880Z,9.35
2023-03-06T09:35:57.516Z,9.34
2023-03-06T09:37:29.697Z,9.42
2023-03-06T09:39:01.839Z,9.49
2023-03-06T09:40:46.149Z,9.55
2023-03-06T09:42:21.431Z,9.60
2023-03-06T09:44:12.202Z,9.62
2023-03-06T09:45:44.474Z,9.68
2023-03-06T09:47:38.107Z,9.76
2023-03-06T09:49:19.143Z,9.79
2023-03-06T09:50:55.547Z,9.80
2023-03-06T09:52:30.429Z,9.85
2023-03-06T09:54:13.702Z,9.86
2023-03-06T09:56:11.207Z,9.88
2023-03-06T09:57:45.905Z,9.92
2023-03-06T09:59:21.733Z,9.98
2023-03-06T10:01:15.311Z,10.04
2023-03-06T10:02:51.133Z,10.03
2023-03-06T10:04:29.380Z,9.98
2023-03-06T10:06:18.832Z,10.01
2023-03-06T10:08:30.826Z,10.06
2023-03-06T10:10:06.881Z,10.16
2023-03-06T10:11:59.196Z,10.31
2023-03-06T10:13:38.548Z,10.39
2023-03-06T10:15:34.258Z,10.45
2023-03-06T10:17:07.235Z,10.49
2023-03-06T10:18:39.754Z,10.57
2023-03-06T10:20:53.128Z,10.65
2023-03-06T10:22:34.511Z,10.71
2023-03-06T10:24:17.093Z,10.77
2023-03-06T10:26:04.399Z,10.86
2023-03-06T10:27:51.163Z,10.86
2023-03-06T10:29:31.957Z,10.87
2023-03-06T10:31:16.335Z,10.97
2023-03-06T10:33:15.204Z,10.99
2023-03-06T10:34:48.170Z,11.04
2023-03-06T10:36:21.668Z,11.14
2023-03-06T10:37:58.781Z,11.16
2023-03-06T10:39:31.097Z,11.13
2023-03-06T10:41:06.187Z,11.23
2023-03-06T10:42:38.462Z,11.24
2023-03-06T10:44:13.254Z,11.32
2023-03-06T10:45:54.616Z,11.36
2023-03-06T10:47:32.291Z,11.35
2023-03-06T10:50:36.257Z,11.36
2023-03-06T10:52:20.868Z,11.45
2023-03-06T10:54:00.569Z,11.47
2023-03-06T10:55:38.185Z,11.57
2023-03-06T10:57:27.376Z,11.59
2023-03-06T10:59:14.655Z,11.66
2023-03-06T11:00:46.908Z,11.66
2023-03-06T11:02:31.980Z,11.68
2023-03-06T11:04:24.353Z,11.70
2023-03-06T11:06:06.910Z,11.86
2023-03-06T11:07:57.481Z,11.91
2023-03-06T11:09:29.780Z,11.93
2023-03-06T11:11:06.510Z,11.97
2023-03-06T11:12:40.064Z,12.03
2023-03-06T11:14:23.277Z,12.12
2023-03-06T11:16:03.206Z,12.12
2023-03-06T11:18:03.058Z,12.14
2023-03-06T11:19:35.207Z,12.16
2023-03-06T11:21:34.774Z,12.26
2023-03-06T11:23:31.393Z,12.23
2023-03-06T11:25:03.633Z,12.29
2023-03-06T11:26:45.410Z,12.45
2023-03-06T11:28:29.323Z,12.35
2023-03-06T11:30:05.088Z,12.40
2023-03-06T11:31:43.643Z,12.40
2023-03-06T11:33:22.946Z,12.41
2023-03-06T11:34:58.494Z,12.34
2023-03-06T11:36:40.705Z,12.20
2023-03-06T11:38:19.599Z,12.26
2023-03-06T11:40:05.450Z,12.38
2023-03-06T11:41:45.703Z,12.44
2023-03-06T11:43:51.706Z,12.46
2023-03-06T11:45:27.476Z,12.50
2023-03-06T11:47:26.227Z,12.64
2023-03-06T11:49:31.585Z,12.75
2023-03-06T11:51:11.642Z,12.76
2023-03-06T11:54:14.554Z,12.84
2023-03-06T11:55:55.681Z,12.97
2023-03-06T11:57:36.089Z,13.04
2023-03-06T11:59:26.445Z,13.06
2023-03-06T12:01:22.548Z,13.15
2023-03-06T12:03:03.157Z,13.26
2023-03-06T12:04:43.955Z,13.23
2023-03-06T12:06:38.987Z,13.35
2023-03-06T12:08:52.639Z,13.50
2023-03-06T12:10:33.073Z,13.54
2023-03-06T12:12:10.946Z,13.59
2023-03-06T12:14:04.673Z,13.69
2023-03-06T12:16:07.825Z,13.66
2023-03-06T12:17:58.312Z,13.66
2023-03-06T12:19:42.338Z,13.81
2023-03-06T12:21:37.234Z,13.65
2023-03-06T12:25:35.167Z,13.85
2023-03-06T12:27:13.357Z,13.71
2023-03-06T12:29:18.898Z,13.66
2023-03-06T12:31:11.913Z,13.58
2023-03-06T12:32:53.497Z,13.63
2023-03-06T12:35:06.110Z,13.53
2023-03-06T12:36:51.167Z,13.31
2023-03-06T12:39:07.676Z,13.01
2023-03-06T12:40:51.385Z,13.05
2023-03-06T12:42:42.665Z,12.95
2023-03-06T12:44:33.350Z,13.02
2023-03-06T12:46:26.350Z,13.03
2023-03-06T12:47:58.810Z,13.00
2023-03-06T12:49:33.478Z,13.08
2023-03-06T12:51:07.182Z,13.11
2023-03-06T12:52:39.292Z,13.11
2023-03-06T12:54:13.204Z,13.28
2023-03-06T12:55:49.305Z,13.15
2023-03-06T12:57:24.278Z,13.20
2023-03-06T12:58:57.623Z,13.13
2023-03-06T13:00:32.604Z,13.25
2023-03-06T13:02:29.158Z,13.27
2023-03-06T13:04:28.052Z,13.21
2023-03-06T13:06:14.605Z,13.25
2023-03-06T13:08:22.940Z,13.15
2023-03-06T13:10:11.837Z,13.20
2023-03-06T13:11:53.766Z,13.24
2023-03-06T13:13:35.049Z,13.18
2023-03-06T13:15:43.188Z,13.06
2023-03-06T13:17:25.700Z,13.04
2023-03-06T13:19:19.370Z,13.00
2023-03-06T13:20:55.689Z,12.99
2023-03-06T13:22:29.364Z,12.97
2023-03-06T13:24:06.155Z,12.92
2023-03-06T13:25:48.453Z,12.97
2023-03-06T13:27:55.337Z,12.96
2023-03-06T13:29:36.452Z,12.98
2023-03-06T13:31:15.393Z,12.88
2023-03-06T13:32:57.316Z,12.95
2023-03-06T13:34:32.412Z,12.99
2023-03-06T13:36:28.616Z,12.95
2023-03-06T13:38:01.125Z,12.86
2023-03-06T13:39:55.656Z,12.84
2023-03-06T13:41:34.293Z,12.91
2023-03-06T13:43:09.262Z,12.94
2023-03-06T13:44:42.748Z,12.98
2023-03-06T13:46:18.835Z,13.11
2023-03-06T13:49:49.578Z,12.87
2023-03-06T13:51:26.378Z,12.91
2023-03-06T13:53:35.704Z,12.84
2023-03-06T13:55:24.595Z,12.87
2023-03-06T13:57:34.757Z,12.72
2023-03-06T13:59:44.261Z,12.75
2023-03-06T14:01:26.638Z,12.79
2023-03-06T14:03:09.310Z,12.79
2023-03-06T14:04:54.572Z,12.74
2023-03-06T14:06:35.576Z,12.68
2023-03-06T14:08:17.209Z,12.60
2023-03-06T14:09:56.113Z,12.50
2023-03-06T14:11:28.471Z,12.37
2023-03-06T14:13:07.493Z,12.42
2023-03-06T14:14:43.146Z,12.32
2023-03-06T14:16:20.889Z,12.26
2023-03-06T14:18:04.829Z,12.31
2023-03-06T14:19:37.716Z,12.25
2023-03-06T14:21:14.143Z,12.17
2023-03-06T14:22:46.768Z,12.11
2023-03-06T14:24:21.511Z,12.11
2023-03-06T14:26:15.584Z,12.18
2023-03-06T14:27:50.303Z,12.15
2023-03-06T14:29:24.719Z,12.17
2023-03-06T14:30:59.040Z,12.13
2023-03-06T14:32:31.693Z,12.11
2023-03-06T14:34:18.633Z,12.04
2023-03-06T14:35:52.946Z,12.06
2023-03-06T14:37:29.588Z,11.94
2023-03-06T14:39:29.971Z,12.00
2023-03-06T14:41:02.854Z,12.00
2023-03-06T14:42:34.855Z,11.96
2023-03-06T14:44:22.086Z,12.10
2023-03-06T14:46:03.988Z,12.06
2023-03-06T14:47:37.108Z,12.12
2023-03-06T14:49:09.215Z,12.13
2023-03-06T14:50:42.070Z,12.03
2023-03-06T14:52:21.338Z,12.13
2023-03-06T14:53:54.566Z,12.13
2023-03-06T14:55:28.195Z,12.10
2023-03-06T14:57:13.170Z,12.16
2023-03-06T14:59:16.900Z,12.11
2023-03-06T15:00:51.831Z,12.10
2023-03-06T15:02:26.857Z,12.09
2023-03-06T15:04:00.973Z,12.01
2023-03-06T15:05:33.197Z,11.91
2023-03-06T15:07:17.750Z,11.92
2023-03-06T15:08:57.165Z,11.90
2023-03-06T15:10:31.281Z,11.86
2023-03-06T15:12:23.581Z,11.88
2023-03-06T15:14:03.460Z,11.86
2023-03-06T15:15:35.586Z,11.75
2023-03-06T15:17:19.858Z,11.72
2023-03-06T15:19:00.102Z,11.73
2023-03-06T15:20:44.442Z,11.64
2023-03-06T15:22:38.154Z,11.66
2023-03-06T15:24:42.769Z,11.64
2023-03-06T15:26:33.292Z,11.60
2023-03-06T15:28:26.261Z,11.58
2023-03-06T15:30:31.830Z,11.58
2023-03-06T15:32:30.541Z,11.59
2023-03-06T15:34:11.341Z,11.55
2023-03-06T15:35:53.073Z,11.49
2023-03-06T15:37:29.186Z,11.51
2023-03-06T15:39:01.539Z,11.46
2023-03-06T15:40:33.926Z,11.46
2023-03-06T15:42:25.389Z,11.43
2023-03-06T15:43:58.935Z,11.42
2023-03-06T15:45:32.364Z,11.38
2023-03-06T15:47:09.626Z,11.43
2023-03-06T15:49:00.648Z,11.37
2023-03-06T15:50:33.776Z,11.32
2023-03-06T15:52:07.214Z,11.27
2023-03-06T15:53:40.325Z,11.31
2023-03-06T15:55:17.118Z,11.26
2023-03-06T15:56:49.808Z,11.20
2023-03-06T15:58:25.100Z,11.16
2023-03-06T15:59:58.748Z,11.12
2023-03-06T16:01:30.906Z,11.05
2023-03-06T16:03:03.746Z,11.03
2023-03-06T16:04:35.950Z,11.01
2023-03-06T16:06:30.795Z,11.01
2023-03-06T16:08:02.919Z,10.98
2023-03-06T16:09:34.892Z,10.94
2023-03-06T16:11:07.150Z,10.91
2023-03-06T16:12:39.217Z,10.88
2023-03-06T16:14:19.562Z,10.86
2023-03-06T16:15:51.763Z,10.78
2023-03-06T16:17:23.854Z,10.69
2023-03-06T16:18:55.958Z,10.62
2023-03-06T16:20:29.088Z,10.61
2023-03-06T16:22:01.379Z,10.53
2023-03-06T16:23:33.493Z,10.43
2023-03-06T16:25:06.077Z,10.36
2023-03-06T16:26:38.457Z,10.29
2023-03-06T16:28:15.442Z,10.27
2023-03-06T16:29:47.553Z,10.21
2023-03-06T16:31:19.653Z,10.16
2023-03-06T16:32:51.774Z,10.11
2023-03-06T16:34:24.580Z,10.07
2023-03-06T16:35:56.724Z,10.00
2023-03-06T16:37:28.842Z,9.89
2023-03-06T16:39:00.943Z,9.78
2023-03-06T16:40:41.540Z,9.73
2023-03-06T16:42:13.726Z,9.63
2023-03-06T16:43:47.382Z,9.58
2023-03-06T16:45:20.555Z,9.44
2023-03-06T16:46:52.614Z,9.37
2023-03-06T16:48:24.627Z,9.32
2023-03-06T16:49:58.383Z,9.25
2023-03-06T16:51:30.480Z,9.19
2023-03-06T16:53:02.686Z,9.15
2023-03-06T16:54:34.781Z,9.07
2023-03-06T16:56:07.129Z,9.03
2023-03-06T16:57:39.178Z,9.03
2023-03-06T16:59:11.975Z,8.94
2023-03-06T17:00:44.380Z,8.83
2023-03-06T17:02:16.466Z,8.70
2023-03-06T17:03:48.658Z,8.55
2023-03-06T17:05:20.930Z,8.41
2023-03-06T17:06:53.602Z,8.35
2023-03-06T17:08:25.708Z,8.29
2023-03-06T17:09:57.919Z,8.24
2023-03-06T17:11:30.080Z,8.26
2023-03-06T17:13:02.157Z,8.22
2023-03-06T17:14:34.480Z,8.18
2023-03-06T17:16:13.061Z,8.14
2023-03-06T17:17:45.345Z,8.04
2023-03-06T17:19:17.457Z,7.97
2023-03-06T17:20:51.862Z,7.91
2023-03-06T17:22:24.114Z,7.77
2023-03-06T17:23:56.668Z,7.72
2023-03-06T17:25:28.840Z,7.62
2023-03-06T17:27:00.989Z,7.60
2023-03-06T17:28:33.366Z,7.62
2023-03-06T17:30:06.464Z,7.64
2023-03-06T17:31:38.648Z,7.62
2023-03-06T17:33:10.947Z,7.58
2023-03-06T17:34:43.126Z,7.60
2023-03-06T17:36:16.591Z,7.58
2023-03-06T17:37:48.539Z,7.55
2023-03-06T17:39:20.618Z,7.39
2023-03-06T17:40:52.875Z,7.33
2023-03-06T17:42:24.982Z,7.34
2023-03-06T17:43:58.581Z,7.37
2023-03-06T17:45:30.701Z,7.36
2023-03-06T17:47:03.403Z,7.42
2023-03-06T17:48:35.756Z,7.42
2023-03-06T17:50:08.547Z,7.43
2023-03-06T17:51:40.595Z,7.39
2023-03-06T17:53:12.688Z,7.35
2023-03-06T17:54:45.211Z,7.25
2023-03-06T17:56:17.398Z,7.14
2023-03-06T17:57:52.247Z,7.08
2023-03-06T17:59:24.265Z,6.97
2023-03-06T18:00:56.643Z,6.95
2023-03-06T18:02:28.717Z,6.94
2023-03-06T18:04:05.490Z,6.95
2023-03-06T18:05:37.690Z,6.97
2023-03-06T18:07:10.608Z,7.01
2023-03-06T18:08:42.929Z,7.02
2023-03-06T18:10:15.131Z,7.02
2023-03-06T18:11:47.234Z,7.00
2023-03-06T18:13:19.338Z,6.93
2023-03-06T18:14:51.501Z,6.86
2023-03-06T18:16:25.781Z,6.83
2023-03-06T18:17:59.472Z,6.76
2023-03-06T18:19:31.512Z,6.74
2023-03-06T18:21:05.650Z,6.72
2023-03-06T18:22:37.768Z,6.69
2023-03-06T18:24:11.780Z,6.70
2023-03-06T18:25:44.221Z,6.70
2023-03-06T18:27:16.438Z,6.68
2023-03-06T18:28:51.987Z,6.66
2023-03-06T18:30:24.215Z,6.59
2023-03-06T18:31:59.525Z,6.55
2023-03-06T18:33:32.185Z,6.57
2023-03-06T18:35:04.494Z,6.53
2023-03-06T18:36:37.548Z,6.49
2023-03-06T18:38:09.632Z,6.44
2023-03-06T18:39:41.719Z,6.45
2023-03-06T18:41:14.573Z,6.48
2023-03-06T18:42:48.359Z,6.48
2023-03-06T18:44:20.560Z,6.43
2023-03-06T18:45:58.899Z,6.44
2023-03-06T18:47:31.187Z,6.37
2023-03-06T18:49:04.043Z,6.32
2023-03-06T18:50:36.175Z,6.32
2023-03-06T18:52:08.686Z,6.26
2023-03-06T18:53:41.151Z,6.19
2023-03-06T18:55:13.449Z,6.15
2023-03-06T18:56:45.601Z,6.06
2023-03-06T18:58:18.798Z,6.02
2023-03-06T18:59:51.087Z,5.94
2023-03-06T19:01:23.474Z,5.91
2023-03-06T19:02:58.027Z,5.87
2023-03-06T19:04:30.109Z,5.85
2023-03-06T19:06:06.721Z,5.90
2023-03-06T19:07:39.591Z,5.90
2023-03-06T19:09:14.472Z,5.85
2023-03-06T19:10:47.288Z,5.86
2023-03-06T19:12:19.368Z,5.88
2023-03-06T19:13:51.535Z,5.91
2023-03-06T19:15:23.684Z,5.92
2023-03-06T19:16:56.013Z,5.90
2023-03-06T19:18:28.632Z,5.91
2023-03-06T19:20:00.642Z,5.87
2023-03-06T19:21:32.674Z,5.85
2023-03-06T19:23:04.705Z,5.81
2023-03-06T19:24:36.897Z,5.76
2023-03-06T19:26:09.087Z,5.71
2023-03-06T19:27:43.433Z,5.65
2023-03-06T19:29:15.486Z,5.65
2023-03-06T19:30:47.574Z,5.64
2023-03-06T19:32:19.607Z,5.62
2023-03-06T19:33:53.404Z,5.62
2023-03-06T19:35:27.159Z,5.62
2023-03-06T19:36:59.310Z,5.52
2023-03-06T19:40:11.268Z,5.18
2023-03-06T19:41:43.330Z,5.04
2023-03-06T19:43:15.460Z,4.93
2023-03-06T19:44:47.489Z,4.91
2023-03-06T19:46:20.352Z,4.91
2023-03-06T19:47:55.744Z,4.88
2023-03-06T19:49:27.798Z,4.86
2023-03-06T19:51:04.594Z,4.86
2023-03-06T19:52:38.621Z,4.79
2023-03-06T19:54:14.242Z,4.72
2023-03-06T19:55:46.375Z,4.68
2023-03-06T19:57:19.156Z,4.72
2023-03-06T19:58:51.566Z,4.71
2023-03-06T20:00:24.017Z,4.69
2023-03-06T20:01:56.332Z,4.64
2023-03-06T20:03:28.416Z,4.56
2023-03-06T20:05:00.520Z,4.50
2023-03-06T20:06:33.983Z,4.46
2023-03-06T20:08:06.090Z,4.39
2023-03-06T20:09:41.095Z,4.33
2023-03-06T20:11:20.749Z,4.26
2023-03-06T20:12:52.809Z,4.22
2023-03-06T20:14:24.993Z,4.23
2023-03-06T20:15:58.219Z,4.23
2023-03-06T20:17:30.374Z,4.23
2023-03-06T20:19:02.644Z,4.14
2023-03-06T20:20:34.776Z,4.03
2023-03-06T20:22:06.877Z,3.95
2023-03-06T20:23:38.961Z,3.88
2023-03-06T20:25:11.107Z,3.84
2023-03-06T20:26:44.571Z,3.81
2023-03-06T20:28:16.623Z,3.71
2023-03-06T20:29:48.619Z,3.61
2023-03-06T20:31:22.407Z,3.52
2023-03-06T20:32:56.143Z,3.42
2023-03-06T20:34:28.174Z,3.32
2023-03-06T20:36:00.435Z,3.25
2023-03-06T20:37:34.682Z,3.29
2023-03-06T20:39:14.715Z,3.32
2023-03-06T20:40:47.065Z,3.24
2023-03-06T20:42:19.051Z,3.20
2023-03-06T20:43:52.668Z,3.23
2023-03-06T20:45:24.539Z,3.27
2023-03-06T20:46:56.633Z,3.23
2023-03-06T20:48:29.586Z,3.23
2023-03-06T20:50:01.656Z,3.14
2023-03-06T20:51:37.983Z,3.15
2023-03-06T20:53:10.959Z,3.10
2023-03-06T20:54:43.103Z,3.05
2023-03-06T20:56:17.258Z,3.02
2023-03-06T20:57:52.822Z,3.02
2023-03-06T20:59:24.911Z,2.96
2023-03-06T21:00:57.501Z,2.93
2023-03-06T21:02:29.614Z,2.87
2023-03-06T21:04:06.132Z,2.88
2023-03-06T21:05:38.205Z,2.83
2023-03-06T21:07:10.289Z,2.80
2023-03-06T21:08:42.484Z,2.81
2023-03-06T21:10:15.549Z,2.81
2023-03-06T21:11:48.290Z,2.88
2023-03-06T21:13:20.353Z,2.90
2023-03-06T21:14:52.389Z,2.90
2023-03-06T21:16:26.350Z,2.93
2023-03-06T21:17:58.447Z,2.88
2023-03-06T21:19:30.395Z,2.84
2023-03-06T21:21:10.854Z,2.85
2023-03-06T21:22:42.922Z,2.78
2023-03-06T21:24:15.151Z,2.73
2023-03-06T21:25:49.226Z,2.66
2023-03-06T21:27:21.219Z,2.60
2023-03-06T21:28:53.383Z,2.64
2023-03-06T21:30:25.656Z,2.59
2023-03-06T21:31:57.776Z,2.58
2023-03-06T21:33:29.907Z,2.58
2023-03-06T21:35:01.932Z,2.56
2023-03-06T21:36:34.746Z,2.57
2023-03-06T21:38:10.163Z,2.52
2023-03-06T21:39:42.356Z,2.49
2023-03-06T21:41:19.745Z,2.45
2023-03-06T21:42:51.928Z,2.37
2023-03-06T21:44:24.039Z,2.37
2023-03-06T21:45:58.514Z,2.35
2023-03-06T21:47:32.005Z,2.31
2023-03-06T21:49:05.169Z,2.34
2023-03-06T21:50:37.280Z,2.33
2023-03-06T21:52:09.407Z,2.30
2023-03-06T21:53:42.823Z,2.29
2023-03-06T21:55:14.909Z,2.22
2023-03-06T21:56:47.008Z,2.17
2023-03-06T21:58:19.145Z,2.15
2023-03-06T21:59:51.171Z,2.11
2023-03-06T22:01:26.340Z,2.15
2023-03-06T22:02:58.415Z,2.07
2023-03-06T22:04:30.535Z,2.06
2023-03-06T22:06:16.167Z,2.07
2023-03-06T22:07:48.251Z,2.03
2023-03-06T22:09:21.364Z,2.04
2023-03-06T22:10:53.462Z,2.03
2023-03-06T22:12:25.604Z,2.04
2023-03-06T22:13:58.406Z,2.11
2023-03-06T22:15:30.462Z,2.11